Nashville, TN (37201)

11:25 AM CST on February 01, 2015 (GMT -0600)
APRSWXNET Nashville TN US | Change Station
CLOSE
Current Station
Personal Weather Station
Location: Nashville, TN
Elevation: 728 ft
Nearby Weather Stations
Active Advisory: Special Statement Active Notice: Public Information Statement

Elev 728 ft 36.14 °N, 86.80 °W | Updated 24 minutes ago

Rain
Rain
46 °F
Feels Like 41 °F
N
11
Wind Variable Wind from SSE
Gusts 21.0 mph

Today
High -- | Low -- °F
--% Chance of Precip.
Yesterday
High -- | Low -- °F
Precip. -- in
6:48 AM 5:13 PM
Waxing Gibbous, 95% visible
Pressure 29.87 in
Visibility 10.0 miles
Clouds Mostly Cloudy 2100 ft
Mostly Cloudy 2600 ft
Overcast 7000 ft
Windchill 41 °F
Dew Point 41 °F
Humidity 84%
Rainfall 0.05 in
Snow Depth Not available.
UV 1 out of 12
Pollen .80 out of 12
Air Quality Not available.
Flu Activity Not available.
SPECI KBNA 011709Z 18014KT 10SM BKN021 BKN026 OVC070 08/06 A2987 RMK AO2

More Conditions Fewer Conditions

Pressure 29.87 in
Visibility 10.0 miles
Clouds Mostly Cloudy 2100 ft
Mostly Cloudy 2600 ft
Overcast 7000 ft
Windchill 41 °F
Dew Point 41 °F
Humidity 84%
Rainfall 0.05 in
Snow Depth Not available.
UV 1 out of 12
Pollen .80 out of 12
Air Quality Not available.
Flu Activity Not available.
SPECI KBNA 011709Z 18014KT 10SM BKN021 BKN026 OVC070 08/06 A2987 RMK AO2

More Conditions Fewer Conditions

10-Day Weather Forecast

Almanac

Astronomy

Feb. 01, 2015 Rise Set
Actual Time
Civil Twilight
Nautical Twilight
Astronomical Twilight
Moon
Length of Visible Light
Length of Day
Tomorrow will be .
, % of the Moon is Illuminated

Today's Extremes

State Highs State Lows

Community

WunderPhotos

Upload Photos

1,792,399 photos uploaded!

WunderBlogs® & News

Nearby

Air Quality

  Air Quality AQ Index Pollutant
Not available.

Snow Depth

Station Depth Elevation

Earthquake Activity

City Distance Mag. Time & Date
Minimum magnitude displayed is 2.5.

Coastal Water Temperatures

Place Temperature

Nearby Weather Stations